createdAt,value
2019-01-29T00:00:34.057Z,13.18
2019-01-29T00:03:03.385Z,10.85
2019-01-29T00:05:32.745Z,11.90
2019-01-29T00:08:01.719Z,11.65
2019-01-29T00:10:30.349Z,11.90
2019-01-29T00:12:59.329Z,13.10
2019-01-29T00:15:28.256Z,10.40
2019-01-29T00:17:57.490Z,11.68
2019-01-29T00:20:26.133Z,13.15
2019-01-29T00:22:55.879Z,11.60
2019-01-29T00:25:25.554Z,11.88
2019-01-29T00:27:54.963Z,8.83
2019-01-29T00:30:24.731Z,11.05
2019-01-29T00:32:54.177Z,14.20
2019-01-29T00:35:23.407Z,11.75
2019-01-29T00:37:52.712Z,12.03
2019-01-29T00:40:22.426Z,11.90
2019-01-29T00:42:51.805Z,10.65
2019-01-29T00:45:21.656Z,17.05
2019-01-29T00:47:50.948Z,10.45
2019-01-29T00:50:20.620Z,9.60
2019-01-29T00:52:50.363Z,12.55
2019-01-29T00:55:19.879Z,10.13
2019-01-29T00:57:49.292Z,13.25
2019-01-29T01:00:19.897Z,13.22
2019-01-29T01:02:48.448Z,9.65
2019-01-29T01:05:18.109Z,13.18
2019-01-29T01:07:47.691Z,12.05
2019-01-29T01:10:18.889Z,12.03
2019-01-29T01:12:48.605Z,12.50
2019-01-29T01:15:18.254Z,11.03
2019-01-29T01:17:48.062Z,12.03
2019-01-29T01:20:18.530Z,12.23
2019-01-29T01:22:51.185Z,12.58
2019-01-29T01:25:19.450Z,11.05
2019-01-29T01:27:48.768Z,10.40
2019-01-29T01:30:19.549Z,12.65
2019-01-29T01:32:48.813Z,11.90
2019-01-29T01:35:17.792Z,8.08
2019-01-29T01:37:46.375Z,9.23
2019-01-29T01:40:24.552Z,8.88
2019-01-29T01:42:53.415Z,8.63
2019-01-29T01:45:22.284Z,9.43
2019-01-29T01:47:51.208Z,9.08
2019-01-29T01:50:20.175Z,7.17
2019-01-29T01:52:49.083Z,8.43
2019-01-29T01:55:19.560Z,6.75
2019-01-29T01:57:48.891Z,7.03
2019-01-29T02:00:22.048Z,8.20
2019-01-29T02:05:18.588Z,8.88
2019-01-29T02:07:47.748Z,7.67
2019-01-29T02:10:22.999Z,8.48
2019-01-29T02:12:52.347Z,8.70
2019-01-29T02:15:21.731Z,8.28
2019-01-29T02:17:50.771Z,6.67
2019-01-29T02:20:20.191Z,8.98
2019-01-29T02:22:50.414Z,8.35
2019-01-29T02:25:20.573Z,7.87
2019-01-29T02:27:49.573Z,8.00
2019-01-29T02:30:20.736Z,7.17
2019-01-29T02:32:50.611Z,7.50
2019-01-29T02:35:19.463Z,5.65
2019-01-29T02:37:48.036Z,7.10
2019-01-29T02:40:21.751Z,5.90
2019-01-29T02:42:53.390Z,6.40
2019-01-29T02:45:23.796Z,4.58
2019-01-29T02:47:54.288Z,6.37
2019-01-29T02:50:24.739Z,7.15
2019-01-29T02:52:57.166Z,5.97
2019-01-29T02:55:29.890Z,5.62
2019-01-29T02:57:58.942Z,6.87
2019-01-29T03:00:28.873Z,6.50
2019-01-29T03:02:59.389Z,5.80
2019-01-29T03:05:29.491Z,7.35
2019-01-29T03:08:15.759Z,7.65
2019-01-29T03:11:07.145Z,8.38
2019-01-29T03:14:20.453Z,7.28
2019-01-29T03:16:54.824Z,7.00
2019-01-29T03:19:42.222Z,7.65
2019-01-29T03:25:44.265Z,6.80
2019-01-29T03:28:15.992Z,8.35
2019-01-29T03:30:54.010Z,5.67
2019-01-29T03:33:26.977Z,7.45
2019-01-29T03:36:19.888Z,6.42
2019-01-29T03:38:59.558Z,6.97
2019-01-29T03:41:37.232Z,9.03
2019-01-29T03:44:28.060Z,7.25
2019-01-29T03:47:20.031Z,8.70
2019-01-29T03:49:49.310Z,8.70
2019-01-29T03:52:30.161Z,7.25
2019-01-29T03:55:00.598Z,7.65
2019-01-29T03:57:29.772Z,8.40
2019-01-29T03:59:58.379Z,7.65
2019-01-29T04:02:28.394Z,7.95
2019-01-29T04:05:10.822Z,8.93
2019-01-29T04:07:41.803Z,10.82
2019-01-29T04:10:15.678Z,7.33
2019-01-29T04:12:45.502Z,10.70
2019-01-29T04:15:15.672Z,7.67
2019-01-29T04:17:44.268Z,5.92
2019-01-29T04:20:18.378Z,8.60
2019-01-29T04:22:49.327Z,9.38
2019-01-29T04:25:20.972Z,7.40
2019-01-29T04:27:52.754Z,10.88
2019-01-29T04:30:24.412Z,8.28
2019-01-29T04:32:53.978Z,7.15
2019-01-29T04:35:27.884Z,8.08
2019-01-29T04:38:00.128Z,8.20
2019-01-29T04:40:43.690Z,8.90
2019-01-29T04:43:38.993Z,6.15
2019-01-29T04:46:10.793Z,7.83
2019-01-29T04:49:06.979Z,8.08
2019-01-29T04:51:35.546Z,7.45
2019-01-29T04:54:06.461Z,7.85
2019-01-29T04:56:40.741Z,6.55
2019-01-29T04:59:10.633Z,6.92
2019-01-29T05:01:47.417Z,7.33
2019-01-29T05:04:32.311Z,7.15
2019-01-29T05:07:28.543Z,7.45
2019-01-29T05:10:22.921Z,7.92
2019-01-29T05:13:10.040Z,9.95
2019-01-29T05:16:14.011Z,9.68
2019-01-29T05:21:53.639Z,10.60
2019-01-29T05:24:30.772Z,12.37
2019-01-29T05:27:11.290Z,12.53
2019-01-29T05:29:51.098Z,10.20
2019-01-29T05:32:23.523Z,11.05
2019-01-29T05:34:57.944Z,13.62
2019-01-29T05:37:35.443Z,14.58
2019-01-29T05:40:14.029Z,12.25
2019-01-29T05:43:02.926Z,9.88
2019-01-29T05:48:28.995Z,9.93
2019-01-29T05:51:03.260Z,9.40
2019-01-29T05:53:33.385Z,7.65
2019-01-29T05:56:01.979Z,9.83
2019-01-29T05:58:35.863Z,9.90
2019-01-29T06:01:07.359Z,7.47
2019-01-29T06:06:49.886Z,9.38
2019-01-29T06:09:24.127Z,9.30
2019-01-29T06:11:56.351Z,7.80
2019-01-29T06:14:28.918Z,10.45
2019-01-29T06:17:00.250Z,6.45
2019-01-29T06:19:29.168Z,8.20
2019-01-29T06:22:00.416Z,8.45
2019-01-29T06:24:30.009Z,7.10
2019-01-29T06:27:14.695Z,8.80
2019-01-29T06:29:50.831Z,8.40
2019-01-29T06:32:24.133Z,8.03
2019-01-29T06:34:56.014Z,8.45
2019-01-29T06:37:29.865Z,9.93
2019-01-29T06:39:59.328Z,9.48
2019-01-29T06:42:28.877Z,9.15
2019-01-29T06:44:57.620Z,8.65
2019-01-29T06:47:36.632Z,9.95
2019-01-29T06:50:08.838Z,9.88
2019-01-29T06:52:39.824Z,9.68
2019-01-29T06:55:18.197Z,10.25
2019-01-29T06:57:56.103Z,9.28
2019-01-29T07:00:40.227Z,9.13
2019-01-29T07:03:37.557Z,9.20
2019-01-29T07:06:29.104Z,8.55
2019-01-29T07:08:58.843Z,9.03
2019-01-29T07:11:37.913Z,11.73
2019-01-29T07:14:18.024Z,11.73
2019-01-29T07:17:18.840Z,12.90
2019-01-29T07:19:55.382Z,11.48
2019-01-29T07:22:26.058Z,13.22
2019-01-29T07:25:04.401Z,13.25
2019-01-29T07:27:44.056Z,15.23
2019-01-29T07:30:20.337Z,11.68
2019-01-29T07:32:55.465Z,15.35
2019-01-29T07:35:24.981Z,15.13
2019-01-29T07:37:55.333Z,15.72
2019-01-29T07:40:24.316Z,14.93
2019-01-29T07:42:53.439Z,17.37
2019-01-29T07:45:23.169Z,14.03
2019-01-29T07:47:52.448Z,17.70
2019-01-29T07:50:21.329Z,17.70
2019-01-29T07:52:49.949Z,16.15
2019-01-29T07:55:20.040Z,17.45
2019-01-29T07:57:48.918Z,16.82
2019-01-29T08:00:17.930Z,16.80
2019-01-29T08:02:49.372Z,13.08
2019-01-29T08:05:18.155Z,12.58
2019-01-29T08:07:50.841Z,15.08
2019-01-29T08:10:19.473Z,15.43
2019-01-29T08:12:48.708Z,12.45
2019-01-29T08:15:17.964Z,11.68
2019-01-29T08:17:46.965Z,14.23
2019-01-29T08:20:16.453Z,15.08
2019-01-29T08:22:45.762Z,12.28
2019-01-29T08:25:15.184Z,14.03
2019-01-29T08:27:44.082Z,15.35
2019-01-29T08:30:12.955Z,15.93
2019-01-29T08:32:49.351Z,15.23
2019-01-29T08:35:32.142Z,16.27
2019-01-29T08:38:01.495Z,15.20
2019-01-29T08:40:30.891Z,14.60
2019-01-29T08:42:59.468Z,16.57
2019-01-29T08:45:29.507Z,13.60
2019-01-29T08:47:58.368Z,15.43
2019-01-29T08:50:27.013Z,13.60
2019-01-29T08:52:55.791Z,18.67
2019-01-29T08:55:24.731Z,19.27
2019-01-29T08:57:53.815Z,18.57
2019-01-29T09:00:23.083Z,16.50
2019-01-29T09:02:52.075Z,20.50
2019-01-29T09:05:21.299Z,22.02
2019-01-29T09:07:50.265Z,22.65
2019-01-29T09:10:19.358Z,22.02
2019-01-29T09:12:48.259Z,23.73
2019-01-29T09:15:17.716Z,25.65
2019-01-29T09:17:46.388Z,24.95
2019-01-29T09:20:16.553Z,28.47
2019-01-29T09:22:46.115Z,26.50
2019-01-29T09:25:20.975Z,28.85
2019-01-29T09:27:47.068Z,26.23
2019-01-29T09:30:18.402Z,28.07
2019-01-29T09:32:47.206Z,29.20
2019-01-29T09:35:16.412Z,30.17
2019-01-29T09:37:45.241Z,31.80
2019-01-29T09:40:16.022Z,29.45
2019-01-29T09:42:44.639Z,30.25
2019-01-29T09:45:15.374Z,29.02
2019-01-29T09:47:44.230Z,34.13
2019-01-29T09:50:15.836Z,32.35
2019-01-29T09:52:44.440Z,32.08
2019-01-29T09:55:14.933Z,30.52
2019-01-29T09:57:44.234Z,32.75
2019-01-29T10:00:19.073Z,32.08
2019-01-29T10:02:47.696Z,27.10
2019-01-29T10:05:16.263Z,31.27
2019-01-29T10:07:45.168Z,29.07
2019-01-29T10:10:14.516Z,29.20
2019-01-29T10:12:43.295Z,27.85
2019-01-29T10:15:15.079Z,30.88
2019-01-29T10:17:44.030Z,30.97
2019-01-29T10:20:12.604Z,29.12
2019-01-29T10:22:41.506Z,36.30
2019-01-29T10:25:14.750Z,32.15
2019-01-29T10:30:13.523Z,29.63
2019-01-29T10:32:42.270Z,30.23
2019-01-29T10:35:14.607Z,27.98
2019-01-29T10:37:43.741Z,27.70
2019-01-29T10:40:17.388Z,27.70
2019-01-29T10:42:46.365Z,22.22
2019-01-29T10:45:17.564Z,22.32
2019-01-29T10:47:48.156Z,21.15
2019-01-29T10:50:23.613Z,19.25
2019-01-29T10:52:53.875Z,23.25
2019-01-29T10:55:23.188Z,24.85
2019-01-29T10:57:52.346Z,20.02
2019-01-29T11:00:34.923Z,20.05
2019-01-29T11:03:04.065Z,16.37
2019-01-29T11:05:34.607Z,16.87
2019-01-29T11:08:03.455Z,16.45
2019-01-29T11:10:32.457Z,18.27
2019-01-29T11:13:02.269Z,18.80
2019-01-29T11:15:35.731Z,16.20
2019-01-29T11:18:08.757Z,20.02
2019-01-29T11:20:39.110Z,17.70
2019-01-29T11:23:09.541Z,18.27
2019-01-29T11:25:39.191Z,20.40
2019-01-29T11:28:09.480Z,19.32
2019-01-29T11:30:40.587Z,17.30
2019-01-29T11:33:12.611Z,19.12
2019-01-29T11:35:44.134Z,16.20
2019-01-29T11:38:16.661Z,14.58
2019-01-29T11:40:46.027Z,15.05
2019-01-29T11:43:15.744Z,17.67
2019-01-29T11:45:52.465Z,14.63
2019-01-29T11:48:22.053Z,13.70
2019-01-29T11:50:51.639Z,15.72
2019-01-29T11:53:21.329Z,14.50
2019-01-29T11:55:53.616Z,14.93
2019-01-29T11:58:23.361Z,16.85
2019-01-29T12:00:56.828Z,16.10
2019-01-29T12:03:26.774Z,15.72
2019-01-29T12:05:56.453Z,13.80
2019-01-29T12:08:25.779Z,14.90
2019-01-29T12:10:55.481Z,16.52
2019-01-29T12:13:25.085Z,16.05
2019-01-29T12:15:54.899Z,15.68
2019-01-29T12:18:24.621Z,14.90
2019-01-29T12:20:54.015Z,16.87
2019-01-29T12:23:23.224Z,16.25
2019-01-29T12:25:52.174Z,15.75
2019-01-29T12:28:21.065Z,15.65
2019-01-29T12:30:50.610Z,16.00
2019-01-29T12:33:19.167Z,15.23
2019-01-29T12:35:48.716Z,15.00
2019-01-29T12:38:17.626Z,16.12
2019-01-29T12:40:46.486Z,16.75
2019-01-29T12:43:15.760Z,16.25
2019-01-29T12:45:45.088Z,17.82
2019-01-29T12:48:14.011Z,17.73
2019-01-29T12:50:48.237Z,17.67
2019-01-29T12:53:19.893Z,18.20
2019-01-29T12:55:49.223Z,15.93
2019-01-29T12:58:18.956Z,17.25
2019-01-29T13:00:53.864Z,17.25
2019-01-29T13:03:22.793Z,15.60
2019-01-29T13:05:51.722Z,17.45
2019-01-29T13:08:21.017Z,18.23
2019-01-29T13:10:49.613Z,16.40
2019-01-29T13:13:18.458Z,18.20
2019-01-29T13:15:47.035Z,15.68
2019-01-29T13:18:15.615Z,15.53
2019-01-29T13:20:44.158Z,16.95
2019-01-29T13:23:12.734Z,17.40
2019-01-29T13:25:41.277Z,20.88
2019-01-29T13:28:09.851Z,17.48
2019-01-29T13:30:38.783Z,17.10
2019-01-29T13:33:09.813Z,16.40
2019-01-29T13:35:38.746Z,16.40
2019-01-29T13:38:08.802Z,15.50
2019-01-29T13:40:37.389Z,17.17
2019-01-29T13:43:06.317Z,17.02
2019-01-29T13:45:34.879Z,17.25
2019-01-29T13:48:03.444Z,16.07
2019-01-29T13:50:35.283Z,14.18
2019-01-29T13:53:03.871Z,13.25
2019-01-29T13:55:32.432Z,13.43
2019-01-29T13:58:01.287Z,13.45
2019-01-29T14:00:31.533Z,14.50
2019-01-29T14:03:00.621Z,11.43
2019-01-29T14:05:29.227Z,10.85
2019-01-29T14:07:57.765Z,11.68
2019-01-29T14:10:26.386Z,10.60
2019-01-29T14:12:54.970Z,10.08
2019-01-29T14:15:31.019Z,9.53
2019-01-29T14:17:59.577Z,10.00
2019-01-29T14:20:28.135Z,10.45
2019-01-29T14:22:56.705Z,9.43
2019-01-29T14:25:25.245Z,9.68
2019-01-29T14:27:54.159Z,8.85
2019-01-29T14:30:22.755Z,9.90
2019-01-29T14:32:51.279Z,10.15
2019-01-29T14:35:22.094Z,10.03
2019-01-29T14:38:44.359Z,8.78
2019-01-29T14:41:13.114Z,9.15
2019-01-29T14:43:45.115Z,9.48
2019-01-29T14:46:14.074Z,9.35
2019-01-29T14:48:42.621Z,9.43
2019-01-29T14:51:11.188Z,9.05
2019-01-29T14:53:40.136Z,10.70
2019-01-29T14:56:09.380Z,10.23
2019-01-29T14:58:37.990Z,11.55
2019-01-29T15:01:06.872Z,11.20
2019-01-29T15:03:35.417Z,10.43
2019-01-29T15:06:03.992Z,10.00
2019-01-29T15:08:32.541Z,11.35
2019-01-29T15:11:01.127Z,9.93
2019-01-29T15:13:29.712Z,11.05
2019-01-29T15:16:05.694Z,15.78
2019-01-29T15:18:38.067Z,10.45
2019-01-29T15:21:06.616Z,14.95
2019-01-29T15:23:35.181Z,20.27
2019-01-29T15:26:03.749Z,16.97
2019-01-29T15:28:32.287Z,17.75
2019-01-29T15:31:00.868Z,16.93
2019-01-29T15:33:29.734Z,13.75
2019-01-29T15:35:58.301Z,12.18
2019-01-29T15:38:26.849Z,15.68
2019-01-29T15:40:55.433Z,15.00
2019-01-29T15:43:23.978Z,12.45
2019-01-29T15:45:52.590Z,11.80
2019-01-29T15:48:21.143Z,16.65
2019-01-29T15:50:49.694Z,13.95
2019-01-29T15:53:18.283Z,10.78
2019-01-29T15:55:46.826Z,9.63
2019-01-29T15:58:15.684Z,10.15
2019-01-29T16:00:44.260Z,12.53
2019-01-29T16:03:13.190Z,11.30
2019-01-29T16:05:42.076Z,10.30
2019-01-29T16:08:10.973Z,9.78
2019-01-29T16:10:40.050Z,11.43
2019-01-29T16:13:08.768Z,11.40
2019-01-29T16:15:37.368Z,12.50
2019-01-29T16:18:05.937Z,14.38
2019-01-29T16:20:34.521Z,11.63
2019-01-29T16:23:03.072Z,8.60
2019-01-29T16:25:31.652Z,7.17
2019-01-29T16:28:00.229Z,7.50
2019-01-29T16:30:28.866Z,6.22
2019-01-29T16:32:57.412Z,4.33
2019-01-29T16:35:28.802Z,5.03
2019-01-29T16:37:57.775Z,3.65
2019-01-29T16:40:26.725Z,3.67
2019-01-29T16:42:56.629Z,4.78
2019-01-29T16:45:30.740Z,10.38
2019-01-29T16:48:00.570Z,30.02
2019-01-29T16:50:29.201Z,18.70
2019-01-29T16:52:57.860Z,16.25
2019-01-29T16:55:26.734Z,10.13
2019-01-29T16:57:55.290Z,10.03
2019-01-29T17:00:28.443Z,6.83
2019-01-29T17:05:25.343Z,6.87
2019-01-29T17:07:54.601Z,7.20
2019-01-29T17:10:24.078Z,7.03
2019-01-29T17:12:53.001Z,8.38
2019-01-29T17:15:25.280Z,10.13
2019-01-29T17:17:54.454Z,9.07
2019-01-29T17:20:25.936Z,21.05
2019-01-29T17:22:55.322Z,12.40
2019-01-29T17:25:24.196Z,28.65
2019-01-29T17:27:52.780Z,19.62
2019-01-29T17:30:30.792Z,34.00
2019-01-29T17:32:59.376Z,24.85
2019-01-29T17:35:28.462Z,13.98
2019-01-29T17:37:57.062Z,19.10
2019-01-29T17:40:25.657Z,28.30
2019-01-29T17:42:57.150Z,23.00
2019-01-29T17:45:28.269Z,24.92
2019-01-29T17:47:56.929Z,17.15
2019-01-29T17:50:28.166Z,16.00
2019-01-29T17:52:56.743Z,19.48
2019-01-29T17:55:25.964Z,17.23
2019-01-29T17:57:54.544Z,13.10
2019-01-29T18:00:27.891Z,11.60
2019-01-29T18:02:56.445Z,10.45
2019-01-29T18:05:25.028Z,10.38
2019-01-29T18:07:53.626Z,11.18
2019-01-29T18:10:22.177Z,13.45
2019-01-29T18:12:51.071Z,10.58
2019-01-29T18:15:21.529Z,11.70
2019-01-29T18:17:50.482Z,14.75
2019-01-29T18:20:19.407Z,13.22
2019-01-29T18:22:48.337Z,12.35
2019-01-29T18:25:16.894Z,11.95
2019-01-29T18:27:45.774Z,14.75
2019-01-29T18:30:19.885Z,13.20
2019-01-29T18:32:48.437Z,12.63
2019-01-29T18:35:16.997Z,12.43
2019-01-29T18:37:45.771Z,12.75
2019-01-29T18:40:16.955Z,13.50
2019-01-29T18:42:45.534Z,12.73
2019-01-29T18:45:14.624Z,15.00
2019-01-29T18:47:43.183Z,14.38
2019-01-29T18:50:13.460Z,15.05
2019-01-29T18:52:43.304Z,22.62
2019-01-29T18:55:12.163Z,23.55
2019-01-29T18:57:40.724Z,23.40
2019-01-29T19:00:17.854Z,23.20
2019-01-29T19:02:46.413Z,23.57
2019-01-29T19:05:15.419Z,25.60
2019-01-29T19:07:44.933Z,30.77
2019-01-29T19:10:15.638Z,30.92
2019-01-29T19:12:44.250Z,33.70
2019-01-29T19:15:18.126Z,29.60
2019-01-29T19:17:46.720Z,33.70
2019-01-29T19:20:16.471Z,33.02
2019-01-29T19:22:45.044Z,30.80
2019-01-29T19:25:14.628Z,30.97
2019-01-29T19:27:43.528Z,30.60
2019-01-29T19:30:15.780Z,30.75
2019-01-29T19:32:44.354Z,28.92
2019-01-29T19:35:12.970Z,28.12
2019-01-29T19:37:41.537Z,26.77
2019-01-29T19:40:10.737Z,28.10
2019-01-29T19:42:39.361Z,27.45
2019-01-29T19:45:11.474Z,28.57
2019-01-29T19:47:40.052Z,32.07
2019-01-29T19:50:12.783Z,30.92
2019-01-29T19:52:41.374Z,21.20
2019-01-29T19:55:09.941Z,20.37
2019-01-29T19:57:38.525Z,21.02
2019-01-29T20:00:12.063Z,18.02
2019-01-29T20:02:40.627Z,20.02
2019-01-29T20:05:09.471Z,17.82
2019-01-29T20:07:38.065Z,18.12
2019-01-29T20:10:07.885Z,18.12
2019-01-29T20:12:36.454Z,16.52
2019-01-29T20:15:06.423Z,16.87
2019-01-29T20:17:35.018Z,16.67
2019-01-29T20:20:03.586Z,16.87
2019-01-29T20:22:32.172Z,16.82
2019-01-29T20:25:00.729Z,19.57
2019-01-29T20:27:29.344Z,17.47
2019-01-29T20:29:57.893Z,17.30
2019-01-29T20:32:26.791Z,16.85
2019-01-29T20:34:55.381Z,16.23
2019-01-29T20:37:23.928Z,15.90
2019-01-29T20:39:52.525Z,15.20
2019-01-29T20:42:21.080Z,15.65
2019-01-29T20:44:49.646Z,17.10
2019-01-29T20:47:18.303Z,18.10
2019-01-29T20:49:46.861Z,16.93
2019-01-29T20:52:15.428Z,16.82
2019-01-29T20:54:44.006Z,19.30
2019-01-29T20:57:12.562Z,15.10
2019-01-29T20:59:41.164Z,14.03
2019-01-29T21:02:09.728Z,15.28
2019-01-29T21:04:38.291Z,14.60
2019-01-29T21:07:06.893Z,15.23
2019-01-29T21:09:35.444Z,16.52
2019-01-29T21:12:04.084Z,15.40
2019-01-29T21:14:32.644Z,17.52
2019-01-29T21:17:01.226Z,17.98
2019-01-29T21:19:29.809Z,19.25
2019-01-29T21:21:58.409Z,18.17
2019-01-29T21:24:26.987Z,18.48
2019-01-29T21:26:55.555Z,20.68
2019-01-29T21:29:24.164Z,18.48
2019-01-29T21:31:52.724Z,20.57
2019-01-29T21:34:21.270Z,18.40
2019-01-29T21:36:49.874Z,15.35
2019-01-29T21:39:18.418Z,17.20
2019-01-29T21:41:46.972Z,17.48
2019-01-29T21:44:15.898Z,17.10
2019-01-29T21:46:44.456Z,17.50
2019-01-29T21:49:13.986Z,18.98
2019-01-29T21:51:42.643Z,19.42
2019-01-29T21:54:11.248Z,18.05
2019-01-29T21:56:39.799Z,18.50
2019-01-29T21:59:13.401Z,18.42
2019-01-29T22:01:38.680Z,17.82
2019-01-29T22:04:07.229Z,15.83
2019-01-29T22:06:35.782Z,19.73
2019-01-29T22:09:07.767Z,17.62
2019-01-29T22:11:36.327Z,18.73
2019-01-29T22:14:04.890Z,16.87
2019-01-29T22:16:33.483Z,16.45
2019-01-29T22:19:02.052Z,14.60
2019-01-29T22:21:30.599Z,18.23
2019-01-29T22:23:59.195Z,17.32
2019-01-29T22:26:27.743Z,18.73
2019-01-29T22:28:56.294Z,14.65
2019-01-29T22:31:24.868Z,17.02
2019-01-29T22:33:53.817Z,17.55
2019-01-29T22:36:22.371Z,17.57
2019-01-29T22:38:50.936Z,17.12
2019-01-29T22:41:19.600Z,20.17
2019-01-29T22:43:48.154Z,17.45
2019-01-29T22:46:16.712Z,14.78
2019-01-29T22:48:45.326Z,14.28
2019-01-29T22:51:14.198Z,16.32
2019-01-29T22:53:42.756Z,16.80
2019-01-29T22:56:11.343Z,18.37
2019-01-29T22:58:39.923Z,16.05
2019-01-29T23:01:20.321Z,16.80
2019-01-29T23:04:02.971Z,12.93
2019-01-29T23:06:52.085Z,16.73
2019-01-29T23:09:20.676Z,15.98
2019-01-29T23:11:49.232Z,14.03
2019-01-29T23:14:17.785Z,16.65
2019-01-29T23:16:46.412Z,13.53
2019-01-29T23:19:15.003Z,15.83
2019-01-29T23:21:43.552Z,15.48
2019-01-29T23:24:12.158Z,16.40
2019-01-29T23:26:40.713Z,16.05
2019-01-29T23:29:09.278Z,15.75
2019-01-29T23:31:37.855Z,14.47
2019-01-29T23:34:06.437Z,13.93
2019-01-29T23:36:35.000Z,14.05
2019-01-29T23:39:04.613Z,14.35
2019-01-29T23:41:33.166Z,11.55
2019-01-29T23:44:01.837Z,11.97
2019-01-29T23:46:30.389Z,11.50
2019-01-29T23:48:59.248Z,11.48
2019-01-29T23:51:27.826Z,14.03
2019-01-29T23:53:56.416Z,13.83
2019-01-29T23:56:24.997Z,13.22
2019-01-29T23:58:53.543Z,14.05
